Aviation Digital Data Service (ADDS)

Output produced by METARs form (1428 UTC 21 May 2019)
found at http://www.aviationweather.gov/metar/data/
 
METAR text: ZGSZ 211400Z 11004MPS 7000 FEW020 FEW040CB BKN050 24/22 Q1011 RETS NOSIG
Conditions at: ZGSZ (SHENZHEN , CN) observed 1400 UTC 21 May 2019
Temperature: 24.0°C (75°F)
Dewpoint: 22.0°C (72°F) [RH = 89%]
Pressure (altimeter): 29.85 inches Hg (1011.0 mb)
Winds: from the ESE (110 degrees) at 9 MPH (8 knots; 4.1 m/s)
Visibility: 4 miles ( 7 km)
Ceiling: 5000 feet AGL
Clouds: few clouds at 2000 feet AGL
few clouds at 4000 feet AGL
broken clouds at 5000 feet AGL
Weather: no significant weather observed at this time

METAR text: ZGSZ 211300Z 12003MPS 4000 TSRA SCT020 FEW025CB BKN033 24/23 Q1011 BECMG AT1330 -SHRA
Conditions at: ZGSZ (SHENZHEN , CN) observed 1300 UTC 21 May 2019
Temperature: 24.0°C (75°F)
Dewpoint: 23.0°C (73°F) [RH = 94%]
Pressure (altimeter): 29.85 inches Hg (1011.0 mb)
Winds: from the ESE (120 degrees) at 7 MPH (6 knots; 3.1 m/s)
Visibility: 2.49 miles (4.01 km)
Ceiling: 3300 feet AGL
Clouds: scattered clouds at 2000 feet AGL
few clouds at 2500 feet AGL
broken clouds at 3300 feet AGL
Weather: TSRA  (rain associated with thunderstorm(s))

METAR text: ZGSZ 211200Z VRB03MPS 4000 +SHRA SCT020 FEW026CB BKN033 24/23 Q1011 BECMG AT1300 -SHRA
Conditions at: ZGSZ (SHENZHEN , CN) observed 1200 UTC 21 May 2019
Temperature: 24.0°C (75°F)
Dewpoint: 23.0°C (73°F) [RH = 94%]
Pressure (altimeter): 29.85 inches Hg (1011.0 mb)
Winds: variable direction winds at 7 MPH (6 knots; 3.1 m/s)
Visibility: 2.49 miles (4.01 km)
Ceiling: 3300 feet AGL
Clouds: scattered clouds at 2000 feet AGL
few clouds at 2600 feet AGL
broken clouds at 3300 feet AGL
Weather: +SHRA  (heavy rain showers)

METAR text: ZGSZ 211100Z 13005MPS 9999 FEW026CB BKN033 27/21 Q1010 BECMG AT1150 TSRA
Conditions at: ZGSZ (SHENZHEN , CN) observed 1100 UTC 21 May 2019
Temperature: 27.0°C (81°F)
Dewpoint: 21.0°C (70°F) [RH = 70%]
Pressure (altimeter): 29.82 inches Hg (1010.0 mb)
Winds: from the SE (130 degrees) at 12 MPH (10 knots; 5.1 m/s)
Visibility: 6 or more miles (10+ km)
Ceiling: 3300 feet AGL
Clouds: few clouds at 2600 feet AGL
broken clouds at 3300 feet AGL
Weather: no significant weather observed at this time

METAR text: ZGSZ 211000Z 11004MPS 9999 BKN033 27/21 Q1009 NOSIG
Conditions at: ZGSZ (SHENZHEN , CN) observed 1000 UTC 21 May 2019
Temperature: 27.0°C (81°F)
Dewpoint: 21.0°C (70°F) [RH = 70%]
Pressure (altimeter): 29.79 inches Hg (1009.0 mb)
Winds: from the ESE (110 degrees) at 9 MPH (8 knots; 4.1 m/s)
Visibility: 6 or more miles (10+ km)
Ceiling: 3300 feet AGL
Clouds: broken clouds at 3300 feet AGL
Weather: no significant weather observed at this time

METAR text: ZGSZ 210900Z 11004MPS 9999 BKN033 28/21 Q1008 NOSIG
Conditions at: ZGSZ (SHENZHEN , CN) observed 0900 UTC 21 May 2019
Temperature: 28.0°C (82°F)
Dewpoint: 21.0°C (70°F) [RH = 66%]
Pressure (altimeter): 29.76 inches Hg (1008.0 mb)
Winds: from the ESE (110 degrees) at 9 MPH (8 knots; 4.1 m/s)
Visibility: 6 or more miles (10+ km)
Ceiling: 3300 feet AGL
Clouds: broken clouds at 3300 feet AGL
Weather: no significant weather observed at this time

METAR text: ZGSZ 210800Z 12004MPS 9999 BKN033 29/21 Q1008 NOSIG
Conditions at: ZGSZ (SHENZHEN , CN) observed 0800 UTC 21 May 2019
Temperature: 29.0°C (84°F)
Dewpoint: 21.0°C (70°F) [RH = 62%]
Pressure (altimeter): 29.76 inches Hg (1008.0 mb)
Winds: from the ESE (120 degrees) at 9 MPH (8 knots; 4.1 m/s)
Visibility: 6 or more miles (10+ km)
Ceiling: 3300 feet AGL
Clouds: broken clouds at 3300 feet AGL
Weather: no significant weather observed at this time

METAR text: ZGSZ 210700Z 11003MPS 080V140 9999 BKN033 28/22 Q1009 NOSIG
Conditions at: ZGSZ (SHENZHEN , CN) observed 0700 UTC 21 May 2019
Temperature: 28.0°C (82°F)
Dewpoint: 22.0°C (72°F) [RH = 70%]
Pressure (altimeter): 29.79 inches Hg (1009.0 mb)
Winds: from the ESE (110 degrees) at 7 MPH (6 knots; 3.1 m/s)
Visibility: 6 or more miles (10+ km)
Ceiling: 3300 feet AGL
Clouds: broken clouds at 3300 feet AGL
Weather: no significant weather observed at this time

METAR text: ZGSZ 210600Z 13004MPS 9999 BKN033 28/21 Q1010 NOSIG
Conditions at: ZGSZ (SHENZHEN , CN) observed 0600 UTC 21 May 2019
Temperature: 28.0°C (82°F)
Dewpoint: 21.0°C (70°F) [RH = 66%]
Pressure (altimeter): 29.82 inches Hg (1010.0 mb)
Winds: from the SE (130 degrees) at 9 MPH (8 knots; 4.1 m/s)
Visibility: 6 or more miles (10+ km)
Ceiling: 3300 feet AGL
Clouds: broken clouds at 3300 feet AGL
Weather: no significant weather observed at this time

METAR text: ZGSZ 210500Z 12003MPS 080V150 9999 BKN033 28/22 Q1011 NOSIG
Conditions at: ZGSZ (SHENZHEN , CN) observed 0500 UTC 21 May 2019
Temperature: 28.0°C (82°F)
Dewpoint: 22.0°C (72°F) [RH = 70%]
Pressure (altimeter): 29.85 inches Hg (1011.0 mb)
Winds: from the ESE (120 degrees) at 7 MPH (6 knots; 3.1 m/s)
Visibility: 6 or more miles (10+ km)
Ceiling: 3300 feet AGL
Clouds: broken clouds at 3300 feet AGL
Weather: no significant weather observed at this time

METAR text: ZGSZ 210400Z 09003MPS 050V130 9999 BKN033 27/22 Q1011 NOSIG
Conditions at: ZGSZ (SHENZHEN , CN) observed 0400 UTC 21 May 2019
Temperature: 27.0°C (81°F)
Dewpoint: 22.0°C (72°F) [RH = 74%]
Pressure (altimeter): 29.85 inches Hg (1011.0 mb)
Winds: from the E (90 degrees) at 7 MPH (6 knots; 3.1 m/s)
Visibility: 6 or more miles (10+ km)
Ceiling: 3300 feet AGL
Clouds: broken clouds at 3300 feet AGL
Weather: no significant weather observed at this time

METAR text: ZGSZ 210300Z 12003MPS 090V150 9999 BKN033 27/22 Q1011 NOSIG
Conditions at: ZGSZ (SHENZHEN , CN) observed 0300 UTC 21 May 2019
Temperature: 27.0°C (81°F)
Dewpoint: 22.0°C (72°F) [RH = 74%]
Pressure (altimeter): 29.85 inches Hg (1011.0 mb)
Winds: from the ESE (120 degrees) at 7 MPH (6 knots; 3.1 m/s)
Visibility: 6 or more miles (10+ km)
Ceiling: 3300 feet AGL
Clouds: broken clouds at 3300 feet AGL
Weather: no significant weather observed at this time

METAR text: ZGSZ 210200Z 12003MPS 070V150 9999 BKN033 27/22 Q1011 NOSIG
Conditions at: ZGSZ (SHENZHEN , CN) observed 0200 UTC 21 May 2019
Temperature: 27.0°C (81°F)
Dewpoint: 22.0°C (72°F) [RH = 74%]
Pressure (altimeter): 29.85 inches Hg (1011.0 mb)
Winds: from the ESE (120 degrees) at 7 MPH (6 knots; 3.1 m/s)
Visibility: 6 or more miles (10+ km)
Ceiling: 3300 feet AGL
Clouds: broken clouds at 3300 feet AGL
Weather: no significant weather observed at this time

METAR text: ZGSZ 210100Z 06003MPS 030V100 9999 SCT019 BKN040 26/22 Q1011 NOSIG
Conditions at: ZGSZ (SHENZHEN , CN) observed 0100 UTC 21 May 2019
Temperature: 26.0°C (79°F)
Dewpoint: 22.0°C (72°F) [RH = 79%]
Pressure (altimeter): 29.85 inches Hg (1011.0 mb)
Winds: from the ENE (60 degrees) at 7 MPH (6 knots; 3.1 m/s)
Visibility: 6 or more miles (10+ km)
Ceiling: 4000 feet AGL
Clouds: scattered clouds at 1900 feet AGL
broken clouds at 4000 feet AGL
Weather: no significant weather observed at this time

METAR text: ZGSZ 210000Z 06002MPS 010V090 9999 SCT016 BKN040 25/22 Q1011 NOSIG
Conditions at: ZGSZ (SHENZHEN , CN) observed 0000 UTC 21 May 2019
Temperature: 25.0°C (77°F)
Dewpoint: 22.0°C (72°F) [RH = 83%]
Pressure (altimeter): 29.85 inches Hg (1011.0 mb)
Winds: from the ENE (60 degrees) at 5 MPH (4 knots; 2.1 m/s)
Visibility: 6 or more miles (10+ km)
Ceiling: 4000 feet AGL
Clouds: scattered clouds at 1600 feet AGL
broken clouds at 4000 feet AGL
Weather: no significant weather observed at this time

METAR text: ZGSZ 202300Z 11003MPS 070V130 9999 SCT016 BKN040 25/23 Q1010 NOSIG
Conditions at: ZGSZ (SHENZHEN , CN) observed 2300 UTC 20 May 2019
Temperature: 25.0°C (77°F)
Dewpoint: 23.0°C (73°F) [RH = 89%]
Pressure (altimeter): 29.82 inches Hg (1010.0 mb)
Winds: from the ESE (110 degrees) at 7 MPH (6 knots; 3.1 m/s)
Visibility: 6 or more miles (10+ km)
Ceiling: 4000 feet AGL
Clouds: scattered clouds at 1600 feet AGL
broken clouds at 4000 feet AGL
Weather: no significant weather observed at this time

METAR text: ZGSZ 202200Z 09004MPS 9999 FEW018 BKN027 25/22 Q1010 NOSIG
Conditions at: ZGSZ (SHENZHEN , CN) observed 2200 UTC 20 May 2019
Temperature: 25.0°C (77°F)
Dewpoint: 22.0°C (72°F) [RH = 83%]
Pressure (altimeter): 29.82 inches Hg (1010.0 mb)
Winds: from the E (90 degrees) at 9 MPH (8 knots; 4.1 m/s)
Visibility: 6 or more miles (10+ km)
Ceiling: 2700 feet AGL
Clouds: few clouds at 1800 feet AGL
broken clouds at 2700 feet AGL
Weather: no significant weather observed at this time

METAR text: ZGSZ 202100Z 11005MPS 9999 SCT013 OVC020 25/23 Q1009 NOSIG
Conditions at: ZGSZ (SHENZHEN , CN) observed 2100 UTC 20 May 2019
Temperature: 25.0°C (77°F)
Dewpoint: 23.0°C (73°F) [RH = 89%]
Pressure (altimeter): 29.79 inches Hg (1009.0 mb)
Winds: from the ESE (110 degrees) at 12 MPH (10 knots; 5.1 m/s)
Visibility: 6 or more miles (10+ km)
Ceiling: 2000 feet AGL
Clouds: scattered clouds at 1300 feet AGL
overcast cloud deck at 2000 feet AGL
Weather: no significant weather observed at this time

METAR text: ZGSZ 202000Z 10004MPS 9999 SCT013 OVC020 26/23 Q1009 NOSIG
Conditions at: ZGSZ (SHENZHEN , CN) observed 2000 UTC 20 May 2019
Temperature: 26.0°C (79°F)
Dewpoint: 23.0°C (73°F) [RH = 84%]
Pressure (altimeter): 29.79 inches Hg (1009.0 mb)
Winds: from the E (100 degrees) at 9 MPH (8 knots; 4.1 m/s)
Visibility: 6 or more miles (10+ km)
Ceiling: 2000 feet AGL
Clouds: scattered clouds at 1300 feet AGL
overcast cloud deck at 2000 feet AGL
Weather: no significant weather observed at this time

METAR text: ZGSZ 201900Z 11002MPS 060V140 9999 SCT018 BKN030 26/22 Q1009 NOSIG
Conditions at: ZGSZ (SHENZHEN , CN) observed 1900 UTC 20 May 2019
Temperature: 26.0°C (79°F)
Dewpoint: 22.0°C (72°F) [RH = 79%]
Pressure (altimeter): 29.79 inches Hg (1009.0 mb)
Winds: from the ESE (110 degrees) at 5 MPH (4 knots; 2.1 m/s)
Visibility: 6 or more miles (10+ km)
Ceiling: 3000 feet AGL
Clouds: scattered clouds at 1800 feet AGL
broken clouds at 3000 feet AGL
Weather: no significant weather observed at this time

METAR text: ZGSZ 201800Z 05003MPS 030V130 9999 BKN033 26/22 Q1009 NOSIG
Conditions at: ZGSZ (SHENZHEN , CN) observed 1800 UTC 20 May 2019
Temperature: 26.0°C (79°F)
Dewpoint: 22.0°C (72°F) [RH = 79%]
Pressure (altimeter): 29.79 inches Hg (1009.0 mb)
Winds: from the NE (50 degrees) at 7 MPH (6 knots; 3.1 m/s)
Visibility: 6 or more miles (10+ km)
Ceiling: 3300 feet AGL
Clouds: broken clouds at 3300 feet AGL
Weather: no significant weather observed at this time

METAR text: ZGSZ 201700Z 04003MPS 320V100 CAVOK 26/23 Q1010 NOSIG
Conditions at: ZGSZ (SHENZHEN , CN) observed 1700 UTC 20 May 2019
Temperature: 26.0°C (79°F)
Dewpoint: 23.0°C (73°F) [RH = 84%]
Pressure (altimeter): 29.82 inches Hg (1010.0 mb)
Winds: from the NE (40 degrees) at 7 MPH (6 knots; 3.1 m/s)
Visibility: 6 or more miles (10+ km)
Ceiling: ceiling and visibility are OK
Clouds: unknown
Weather: no significant weather observed at this time

METAR text: ZGSZ 201600Z 06004MPS CAVOK 26/23 Q1009 NOSIG
Conditions at: ZGSZ (SHENZHEN , CN) observed 1600 UTC 20 May 2019
Temperature: 26.0°C (79°F)
Dewpoint: 23.0°C (73°F) [RH = 84%]
Pressure (altimeter): 29.79 inches Hg (1009.0 mb)
Winds: from the ENE (60 degrees) at 9 MPH (8 knots; 4.1 m/s)
Visibility: 6 or more miles (10+ km)
Ceiling: ceiling and visibility are OK
Clouds: unknown
Weather: no significant weather observed at this time

METAR text: ZGSZ 201500Z 06004MPS 8000 SHRA FEW010 FEW020CB BKN040 26/24 Q1010 RETS BECMG AT1530 -SHRA
Conditions at: ZGSZ (SHENZHEN , CN) observed 1500 UTC 20 May 2019
Temperature: 26.0°C (79°F)
Dewpoint: 24.0°C (75°F) [RH = 89%]
Pressure (altimeter): 29.82 inches Hg (1010.0 mb)
Winds: from the ENE (60 degrees) at 9 MPH (8 knots; 4.1 m/s)
Visibility: 5 miles ( 8 km)
Ceiling: 4000 feet AGL
Clouds: few clouds at 1000 feet AGL
few clouds at 2000 feet AGL
broken clouds at 4000 feet AGL
Weather: SHRA  (rain showers)

METAR text: ZGSZ 201400Z 05008MPS 9999 -TSRA FEW014 FEW020CB BKN030 25/24 Q1010 RESHRA BECMG AT1430 SHRA
Conditions at: ZGSZ (SHENZHEN , CN) observed 1400 UTC 20 May 2019
Temperature: 25.0°C (77°F)
Dewpoint: 24.0°C (75°F) [RH = 94%]
Pressure (altimeter): 29.82 inches Hg (1010.0 mb)
Winds: from the NE (50 degrees) at 18 MPH (16 knots; 8.2 m/s)
Visibility: 6 or more miles (10+ km)
Ceiling: 3000 feet AGL
Clouds: few clouds at 1400 feet AGL
few clouds at 2000 feet AGL
broken clouds at 3000 feet AGL
Weather: -TSRA  (light rain associated with thunderstorm(s))

METAR text: ZGSZ 201300Z 28005MPS 220V310 8000 SHRA SCT020 FEW026CB BKN040 28/26 Q1009 BECMG TL1335 -SHRA
Conditions at: ZGSZ (SHENZHEN , CN) observed 1300 UTC 20 May 2019
Temperature: 28.0°C (82°F)
Dewpoint: 26.0°C (79°F) [RH = 89%]
Pressure (altimeter): 29.79 inches Hg (1009.0 mb)
Winds: from the W (280 degrees) at 12 MPH (10 knots; 5.1 m/s)
Visibility: 5 miles ( 8 km)
Ceiling: 4000 feet AGL
Clouds: scattered clouds at 2000 feet AGL
few clouds at 2600 feet AGL
broken clouds at 4000 feet AGL
Weather: SHRA  (rain showers)

METAR text: ZGSZ 201200Z 20002MPS 9999 SCT040 29/26 Q1008 NOSIG
Conditions at: ZGSZ (SHENZHEN , CN) observed 1200 UTC 20 May 2019
Temperature: 29.0°C (84°F)
Dewpoint: 26.0°C (79°F) [RH = 84%]
Pressure (altimeter): 29.76 inches Hg (1008.0 mb)
Winds: from the SSW (200 degrees) at 5 MPH (4 knots; 2.1 m/s)
Visibility: 6 or more miles (10+ km)
Ceiling: at least 12,000 feet AGL
Clouds: scattered clouds at 4000 feet AGL
Weather: no significant weather observed at this time

METAR text: ZGSZ 201100Z 20003MPS 8000 SCT040 29/26 Q1007 NOSIG
Conditions at: ZGSZ (SHENZHEN , CN) observed 1100 UTC 20 May 2019
Temperature: 29.0°C (84°F)
Dewpoint: 26.0°C (79°F) [RH = 84%]
Pressure (altimeter): 29.73 inches Hg (1007.0 mb)
Winds: from the SSW (200 degrees) at 7 MPH (6 knots; 3.1 m/s)
Visibility: 5 miles ( 8 km)
Ceiling: at least 12,000 feet AGL
Clouds: scattered clouds at 4000 feet AGL
Weather: no significant weather observed at this time

METAR text: ZGSZ 201000Z 20003MPS 7000 SCT040 29/27 Q1007 NOSIG
Conditions at: ZGSZ (SHENZHEN , CN) observed 1000 UTC 20 May 2019
Temperature: 29.0°C (84°F)
Dewpoint: 27.0°C (81°F) [RH = 89%]
Pressure (altimeter): 29.73 inches Hg (1007.0 mb)
Winds: from the SSW (200 degrees) at 7 MPH (6 knots; 3.1 m/s)
Visibility: 4 miles ( 7 km)
Ceiling: at least 12,000 feet AGL
Clouds: scattered clouds at 4000 feet AGL
Weather: no significant weather observed at this time

METAR text: ZGSZ 200900Z 19004MPS 9000 SCT033 29/27 Q1006 NOSIG
Conditions at: ZGSZ (SHENZHEN , CN) observed 0900 UTC 20 May 2019
Temperature: 29.0°C (84°F)
Dewpoint: 27.0°C (81°F) [RH = 89%]
Pressure (altimeter): 29.70 inches Hg (1006.0 mb)
Winds: from the S (190 degrees) at 9 MPH (8 knots; 4.1 m/s)
Visibility: 6 miles ( 9 km)
Ceiling: at least 12,000 feet AGL
Clouds: scattered clouds at 3300 feet AGL
Weather: no significant weather observed at this time

METAR text: ZGSZ 200800Z 17004MPS 9000 SCT030 FEW050CB 29/26 Q1006 NOSIG
Conditions at: ZGSZ (SHENZHEN , CN) observed 0800 UTC 20 May 2019
Temperature: 29.0°C (84°F)
Dewpoint: 26.0°C (79°F) [RH = 84%]
Pressure (altimeter): 29.70 inches Hg (1006.0 mb)
Winds: from the S (170 degrees) at 9 MPH (8 knots; 4.1 m/s)
Visibility: 6 miles ( 9 km)
Ceiling: at least 12,000 feet AGL
Clouds: scattered clouds at 3000 feet AGL
few clouds at 5000 feet AGL
Weather: no significant weather observed at this time

METAR text: ZGSZ 200700Z 20004MPS 180V240 9999 SCT030 FEW040CB 30/27 Q1006 NOSIG
Conditions at: ZGSZ (SHENZHEN , CN) observed 0700 UTC 20 May 2019
Temperature: 30.0°C (86°F)
Dewpoint: 27.0°C (81°F) [RH = 84%]
Pressure (altimeter): 29.70 inches Hg (1006.0 mb)
Winds: from the SSW (200 degrees) at 9 MPH (8 knots; 4.1 m/s)
Visibility: 6 or more miles (10+ km)
Ceiling: at least 12,000 feet AGL
Clouds: scattered clouds at 3000 feet AGL
few clouds at 4000 feet AGL
Weather: no significant weather observed at this time

METAR text: ZGSZ 200600Z VRB02MPS 9999 FEW033CB SCT040 31/26 Q1007 NOSIG
Conditions at: ZGSZ (SHENZHEN , CN) observed 0600 UTC 20 May 2019
Temperature: 31.0°C (88°F)
Dewpoint: 26.0°C (79°F) [RH = 75%]
Pressure (altimeter): 29.73 inches Hg (1007.0 mb)
Winds: variable direction winds at 5 MPH (4 knots; 2.1 m/s)
Visibility: 6 or more miles (10+ km)
Ceiling: at least 12,000 feet AGL
Clouds: few clouds at 3300 feet AGL
scattered clouds at 4000 feet AGL
Weather: no significant weather observed at this time

METAR text: ZGSZ 200500Z 06004MPS 8000 FEW020 FEW025CB 30/25 Q1008 NOSIG
Conditions at: ZGSZ (SHENZHEN , CN) observed 0500 UTC 20 May 2019
Temperature: 30.0°C (86°F)
Dewpoint: 25.0°C (77°F) [RH = 75%]
Pressure (altimeter): 29.76 inches Hg (1008.0 mb)
Winds: from the ENE (60 degrees) at 9 MPH (8 knots; 4.1 m/s)
Visibility: 5 miles ( 8 km)
Ceiling: at least 12,000 feet AGL
Clouds: few clouds at 2000 feet AGL
few clouds at 2500 feet AGL
Weather: no significant weather observed at this time

METAR text: ZGSZ 200400Z 28002MPS 190V330 8000 FEW011 FEW020CB BKN033 30/28 Q1008 BECMG AT0440 -TSRA SCT015 FEW020CB BKN030
Conditions at: ZGSZ (SHENZHEN , CN) observed 0400 UTC 20 May 2019
Temperature: 30.0°C (86°F)
Dewpoint: 28.0°C (82°F) [RH = 89%]
Pressure (altimeter): 29.76 inches Hg (1008.0 mb)
Winds: from the W (280 degrees) at 5 MPH (4 knots; 2.1 m/s)
Visibility: 5 miles ( 8 km)
Ceiling: 3300 feet AGL
Clouds: few clouds at 1100 feet AGL
few clouds at 2000 feet AGL
broken clouds at 3300 feet AGL
Weather: no significant weather observed at this time

METAR text: ZGSZ 200300Z 18003MPS 8000 FEW020 30/28 Q1008 NOSIG
Conditions at: ZGSZ (SHENZHEN , CN) observed 0300 UTC 20 May 2019
Temperature: 30.0°C (86°F)
Dewpoint: 28.0°C (82°F) [RH = 89%]
Pressure (altimeter): 29.76 inches Hg (1008.0 mb)
Winds: from the S (180 degrees) at 7 MPH (6 knots; 3.1 m/s)
Visibility: 5 miles ( 8 km)
Ceiling: at least 12,000 feet AGL
Clouds: few clouds at 2000 feet AGL
Weather: no significant weather observed at this time

Forecast for: ZGSZ (SHENZHEN , CN)
Text: TAF ZGSZ 210909Z 2112/2212 10004MPS 6000 FEW012 BKN030 TX29/2206Z TN24/2122Z
Forecast period: 1200 UTC 21 May 2019 to 1200 UTC 22 May 2019
Forecast type: FROM: standard forecast or significant change
Winds: from the E (100 degrees) at 9 MPH (8 knots; 4.1 m/s)
Visibility: 4 miles (6 km)
Ceiling: 3000 feet AGL
Clouds: few clouds at 1200 feet AGL
broken clouds at 3000 feet AGL
Weather: no significant weather forecast for this period
Text: TEMPO 2112/2115 2500 TSRA SCT012 FEW020CB BKN030
Forecast period: 1200 to 1500 UTC 21 May 2019
Forecast type: TEMPORARY: The following changes expected for less than half the time period
Visibility: 1.55 miles (2.49 km)
Ceiling: 3000 feet AGL
Clouds: scattered clouds at 1200 feet AGL
few clouds at 2000 feet AGL
broken clouds at 3000 feet AGL
Weather: TSRA  (rain associated with thunderstorm(s))
Text: TEMPO 2120/2202 SHRA SCT012 FEW020CB BKN030
Forecast period: 2000 UTC 21 May 2019 to 0200 UTC 22 May 2019
Forecast type: TEMPORARY: The following changes expected for less than half the time period
Visibility: missing
Ceiling: 3000 feet AGL
Clouds: scattered clouds at 1200 feet AGL
few clouds at 2000 feet AGL
broken clouds at 3000 feet AGL
Weather: SHRA  (rain showers)